createdAt,value
2022-12-05T00:00:35.847Z,64.63
2022-12-05T00:03:02.461Z,65.08
2022-12-05T00:05:29.124Z,65.85
2022-12-05T00:07:55.868Z,66.09
2022-12-05T00:10:22.564Z,65.96
2022-12-05T00:12:49.223Z,65.46
2022-12-05T00:15:15.921Z,64.90
2022-12-05T00:17:42.592Z,65.14
2022-12-05T00:20:09.246Z,65.09
2022-12-05T00:22:35.881Z,65.18
2022-12-05T00:25:02.515Z,64.96
2022-12-05T00:27:29.209Z,64.61
2022-12-05T00:29:56.106Z,65.04
2022-12-05T00:32:23.084Z,65.00
2022-12-05T00:34:49.763Z,64.54
2022-12-05T00:37:16.394Z,64.89
2022-12-05T00:39:42.978Z,64.68
2022-12-05T00:42:09.610Z,65.24
2022-12-05T00:44:36.233Z,64.63
2022-12-05T00:47:02.874Z,65.25
2022-12-05T00:49:29.543Z,64.87
2022-12-05T00:51:56.147Z,64.90
2022-12-05T00:54:22.834Z,64.98
2022-12-05T00:56:49.501Z,65.03
2022-12-05T00:59:16.245Z,65.67
2022-12-05T01:01:42.951Z,65.91
2022-12-05T01:04:09.680Z,65.74
2022-12-05T01:06:36.346Z,66.66
2022-12-05T01:09:02.978Z,67.02
2022-12-05T01:11:29.631Z,67.61
2022-12-05T01:13:56.253Z,67.12
2022-12-05T01:16:22.929Z,66.98
2022-12-05T01:18:49.601Z,66.36
2022-12-05T01:21:16.284Z,66.28
2022-12-05T01:23:42.975Z,65.87
2022-12-05T01:26:09.571Z,65.44
2022-12-05T01:28:36.295Z,65.86
2022-12-05T01:31:02.962Z,65.84
2022-12-05T01:33:29.618Z,65.71
2022-12-05T01:35:56.255Z,65.42
2022-12-05T01:38:22.841Z,65.22
2022-12-05T01:40:49.458Z,65.16
2022-12-05T01:43:16.553Z,65.06
2022-12-05T01:45:43.247Z,65.08
2022-12-05T01:48:09.943Z,65.08
2022-12-05T01:50:36.588Z,64.78
2022-12-05T01:53:03.242Z,64.98
2022-12-05T01:55:29.836Z,64.96
2022-12-05T01:57:56.515Z,65.07
2022-12-05T02:00:23.141Z,65.25
2022-12-05T02:02:49.805Z,65.17
2022-12-05T02:05:16.444Z,65.12
2022-12-05T02:07:43.200Z,65.16
2022-12-05T02:10:09.910Z,64.82
2022-12-05T02:12:38.860Z,65.02
2022-12-05T02:15:05.766Z,65.16
2022-12-05T02:17:32.393Z,65.06
2022-12-05T02:19:59.344Z,65.56
2022-12-05T02:22:26.231Z,65.34
2022-12-05T02:24:52.920Z,64.90
2022-12-05T02:27:19.537Z,65.31
2022-12-05T02:29:46.150Z,64.90
2022-12-05T02:32:12.787Z,64.91
2022-12-05T02:34:39.408Z,65.27
2022-12-05T02:37:06.072Z,65.25
2022-12-05T02:39:32.691Z,65.69
2022-12-05T02:41:59.382Z,65.24
2022-12-05T02:44:26.026Z,65.24
2022-12-05T02:46:52.733Z,64.87
2022-12-05T02:49:19.373Z,65.04
2022-12-05T02:51:46.042Z,64.95
2022-12-05T02:54:12.681Z,65.44
2022-12-05T02:56:39.294Z,65.36
2022-12-05T02:59:05.901Z,64.94
2022-12-05T03:01:32.605Z,64.94
2022-12-05T03:03:59.428Z,65.05
2022-12-05T03:06:26.073Z,65.04
2022-12-05T03:08:52.713Z,65.15
2022-12-05T03:11:19.340Z,65.16
2022-12-05T03:13:45.946Z,65.03
2022-12-05T03:16:12.695Z,64.74
2022-12-05T03:18:39.363Z,65.10
2022-12-05T03:21:06.033Z,65.68
2022-12-05T03:23:32.675Z,65.47
2022-12-05T03:25:59.278Z,65.42
2022-12-05T03:28:25.910Z,65.39
2022-12-05T03:30:52.611Z,65.65
2022-12-05T03:33:19.308Z,65.60
2022-12-05T03:35:45.962Z,65.76
2022-12-05T03:38:12.579Z,65.83
2022-12-05T03:40:39.166Z,65.75
2022-12-05T03:43:05.786Z,65.36
2022-12-05T03:45:32.417Z,65.61
2022-12-05T03:47:59.036Z,65.34
2022-12-05T03:50:25.693Z,65.29
2022-12-05T03:53:18.567Z,65.44
2022-12-05T03:55:38.996Z,65.77
2022-12-05T03:58:05.679Z,65.68
2022-12-05T04:00:32.362Z,65.40
2022-12-05T04:02:59.055Z,65.07
2022-12-05T04:05:25.717Z,65.13
2022-12-05T04:07:52.429Z,65.02
2022-12-05T04:10:19.175Z,65.26
2022-12-05T04:12:45.814Z,65.14
2022-12-05T04:15:12.501Z,65.32
2022-12-05T04:17:39.142Z,65.67
2022-12-05T04:20:05.823Z,65.21
2022-12-05T04:22:32.475Z,65.53
2022-12-05T04:24:59.097Z,65.64
2022-12-05T04:27:25.751Z,65.49
2022-12-05T04:29:52.384Z,65.69
2022-12-05T04:32:19.012Z,65.56
2022-12-05T04:34:45.677Z,66.36
2022-12-05T04:37:12.291Z,66.49
2022-12-05T04:39:38.877Z,66.87
2022-12-05T04:42:05.531Z,67.04
2022-12-05T04:44:32.141Z,66.42
2022-12-05T04:46:58.834Z,66.54
2022-12-05T04:49:25.483Z,67.17
2022-12-05T04:51:52.170Z,66.82
2022-12-05T04:54:18.810Z,66.30
2022-12-05T04:56:45.428Z,66.59
2022-12-05T04:59:12.063Z,66.17
2022-12-05T05:01:38.844Z,67.19
2022-12-05T05:04:05.529Z,67.81
2022-12-05T05:06:32.152Z,67.58
2022-12-05T05:08:58.754Z,67.84
2022-12-05T05:11:25.357Z,67.71
2022-12-05T05:13:51.978Z,67.02
2022-12-05T05:16:18.637Z,66.65
2022-12-05T05:18:45.341Z,66.19
2022-12-05T05:21:11.931Z,66.05
2022-12-05T05:23:38.586Z,65.88
2022-12-05T05:26:05.219Z,65.51
2022-12-05T05:28:31.853Z,65.55
2022-12-05T05:30:58.570Z,65.76
2022-12-05T05:33:25.263Z,65.24
2022-12-05T05:35:51.881Z,66.93
2022-12-05T05:38:18.526Z,66.90
2022-12-05T05:40:45.168Z,66.08
2022-12-05T05:43:11.800Z,66.49
2022-12-05T05:45:38.490Z,66.41
2022-12-05T05:48:05.074Z,66.39
2022-12-05T05:50:31.726Z,66.12
2022-12-05T05:52:58.326Z,65.92
2022-12-05T05:55:24.917Z,65.79
2022-12-05T05:57:51.604Z,65.50
2022-12-05T06:00:18.235Z,66.05
2022-12-05T06:02:45.001Z,66.03
2022-12-05T06:05:11.722Z,65.81
2022-12-05T06:07:38.445Z,65.86
2022-12-05T06:10:05.130Z,65.62
2022-12-05T06:12:31.761Z,65.44
2022-12-05T06:14:58.422Z,65.38
2022-12-05T06:17:25.091Z,64.94
2022-12-05T06:19:51.768Z,65.40
2022-12-05T06:22:18.411Z,65.14
2022-12-05T06:24:45.041Z,64.91
2022-12-05T06:27:11.685Z,65.15
2022-12-05T06:29:38.341Z,65.38
2022-12-05T06:32:05.054Z,65.64
2022-12-05T06:34:31.790Z,65.41
2022-12-05T06:36:58.447Z,65.29
2022-12-05T06:39:25.161Z,65.45
2022-12-05T06:41:51.803Z,65.65
2022-12-05T06:44:18.444Z,65.56
2022-12-05T06:46:45.091Z,65.42
2022-12-05T06:49:11.717Z,64.88
2022-12-05T06:51:38.393Z,64.93
2022-12-05T06:54:05.080Z,64.71
2022-12-05T06:56:31.734Z,64.51
2022-12-05T06:58:58.409Z,64.88
2022-12-05T07:01:25.148Z,64.81
2022-12-05T07:03:51.808Z,65.26
2022-12-05T07:06:18.439Z,64.83
2022-12-05T07:08:45.124Z,64.67
2022-12-05T07:11:11.770Z,64.55
2022-12-05T07:13:38.390Z,64.70
2022-12-05T07:16:05.144Z,64.48
2022-12-05T07:18:31.861Z,64.62
2022-12-05T07:21:14.349Z,63.82
2022-12-05T07:23:41.412Z,64.63
2022-12-05T07:26:08.032Z,64.54
2022-12-05T07:28:34.647Z,64.79
2022-12-05T07:31:01.254Z,64.87
2022-12-05T07:33:27.885Z,64.70
2022-12-05T07:35:54.543Z,64.84
2022-12-05T07:38:21.254Z,65.21
2022-12-05T07:40:47.952Z,64.94
2022-12-05T07:43:14.623Z,64.46
2022-12-05T07:45:41.306Z,64.28
2022-12-05T07:48:08.043Z,64.15
2022-12-05T07:50:34.775Z,63.59
2022-12-05T07:53:01.419Z,63.62
2022-12-05T07:55:28.094Z,63.64
2022-12-05T07:57:54.768Z,63.78
2022-12-05T08:00:21.446Z,63.79
2022-12-05T08:02:48.146Z,63.52
2022-12-05T08:05:14.803Z,63.79
2022-12-05T08:07:41.450Z,62.95
2022-12-05T08:10:08.148Z,63.05
2022-12-05T08:12:34.812Z,61.64
2022-12-05T08:15:01.485Z,63.43
2022-12-05T08:17:28.154Z,63.47
2022-12-05T08:19:54.888Z,63.53
2022-12-05T08:22:21.519Z,62.90
2022-12-05T08:24:51.939Z,63.08
2022-12-05T08:27:22.704Z,62.35
2022-12-05T08:29:49.377Z,62.80
2022-12-05T08:32:16.029Z,63.06
2022-12-05T08:34:42.650Z,61.39
2022-12-05T08:37:09.314Z,62.08
2022-12-05T08:39:38.693Z,62.62
2022-12-05T08:42:05.614Z,62.47
2022-12-05T08:44:32.282Z,62.64
2022-12-05T08:46:58.925Z,63.03
2022-12-05T08:49:25.610Z,62.63
2022-12-05T08:51:52.246Z,62.79
2022-12-05T08:54:18.886Z,62.08
2022-12-05T08:56:45.521Z,62.86
2022-12-05T08:59:12.197Z,63.23
2022-12-05T09:01:39.287Z,63.55
2022-12-05T09:04:06.264Z,63.80
2022-12-05T09:06:32.919Z,63.42
2022-12-05T09:08:59.582Z,63.79
2022-12-05T09:11:26.264Z,64.24
2022-12-05T09:13:52.921Z,63.98
2022-12-05T09:16:19.587Z,63.65
2022-12-05T09:18:46.330Z,63.87
2022-12-05T09:21:13.035Z,65.69
2022-12-05T09:23:39.695Z,65.15
2022-12-05T09:26:06.340Z,65.09
2022-12-05T09:28:32.973Z,64.54
2022-12-05T09:30:59.647Z,64.14
2022-12-05T09:33:26.341Z,64.41
2022-12-05T09:35:53.009Z,64.45
2022-12-05T09:38:19.691Z,64.72
2022-12-05T09:40:46.356Z,64.18
2022-12-05T09:43:12.997Z,64.97
2022-12-05T09:45:39.598Z,63.99
2022-12-05T09:48:06.186Z,63.77
2022-12-05T09:50:32.836Z,63.76
2022-12-05T09:52:59.480Z,63.67
2022-12-05T09:55:26.133Z,63.35
2022-12-05T09:57:52.760Z,63.23
2022-12-05T10:00:19.401Z,63.55
2022-12-05T10:02:46.075Z,63.07
2022-12-05T10:05:12.834Z,62.76
2022-12-05T10:07:39.521Z,63.07
2022-12-05T10:10:06.171Z,62.83
2022-12-05T10:12:32.878Z,63.63
2022-12-05T10:14:59.651Z,63.89
2022-12-05T10:17:28.467Z,65.59
2022-12-05T10:19:55.123Z,66.03
2022-12-05T10:22:21.806Z,64.93
2022-12-05T10:24:48.432Z,63.50
2022-12-05T10:27:15.070Z,63.77
2022-12-05T10:29:41.717Z,64.32
2022-12-05T10:32:08.412Z,63.46
2022-12-05T10:34:35.021Z,63.61
2022-12-05T10:37:01.659Z,63.38
2022-12-05T10:39:28.250Z,63.95
2022-12-05T10:41:54.906Z,63.07
2022-12-05T10:44:21.549Z,62.45
2022-12-05T10:46:48.287Z,62.42
2022-12-05T10:49:15.002Z,61.95
2022-12-05T10:51:41.627Z,61.31
2022-12-05T10:54:08.242Z,62.19
2022-12-05T10:56:34.898Z,64.09
2022-12-05T10:59:01.579Z,63.54
2022-12-05T11:01:28.658Z,62.02
2022-12-05T11:03:55.812Z,62.62
2022-12-05T11:06:22.474Z,63.55
2022-12-05T11:09:04.240Z,62.86
2022-12-05T11:11:31.314Z,63.11
2022-12-05T11:13:57.966Z,62.42
2022-12-05T11:16:24.649Z,62.09
2022-12-05T11:18:51.402Z,61.42
2022-12-05T11:21:17.993Z,62.19
2022-12-05T11:23:44.645Z,61.91
2022-12-05T11:26:11.289Z,61.66
2022-12-05T11:28:37.964Z,61.62
2022-12-05T11:31:04.715Z,62.96
2022-12-05T11:33:31.361Z,63.89
2022-12-05T11:35:58.031Z,63.92
2022-12-05T11:38:24.685Z,63.34
2022-12-05T11:40:51.337Z,62.92
2022-12-05T11:43:17.944Z,63.51
2022-12-05T11:45:44.627Z,62.91
2022-12-05T11:48:11.296Z,62.66
2022-12-05T11:50:37.914Z,62.52
2022-12-05T11:53:04.574Z,62.43
2022-12-05T11:55:31.189Z,62.50
2022-12-05T11:57:57.810Z,62.73
2022-12-05T12:00:24.462Z,63.84
2022-12-05T12:02:51.167Z,63.57
2022-12-05T12:05:17.892Z,62.73
2022-12-05T12:07:44.602Z,62.43
2022-12-05T12:10:11.265Z,60.97
2022-12-05T12:12:37.911Z,60.42
2022-12-05T12:15:04.576Z,61.66
2022-12-05T12:17:31.216Z,61.90
2022-12-05T12:19:57.868Z,62.62
2022-12-05T12:22:24.488Z,64.47
2022-12-05T12:24:51.112Z,64.63
2022-12-05T12:27:17.772Z,63.92
2022-12-05T12:29:44.402Z,63.27
2022-12-05T12:32:11.205Z,64.04
2022-12-05T12:34:37.938Z,63.14
2022-12-05T12:37:04.568Z,63.11
2022-12-05T12:39:31.178Z,64.01
2022-12-05T12:41:57.856Z,64.84
2022-12-05T12:44:24.494Z,64.74
2022-12-05T12:46:51.137Z,64.40
2022-12-05T12:49:17.863Z,63.24
2022-12-05T12:51:44.535Z,62.70
2022-12-05T12:54:11.210Z,64.09
2022-12-05T12:56:37.809Z,66.26
2022-12-05T12:59:04.436Z,66.29
2022-12-05T13:01:31.103Z,65.48
2022-12-05T13:03:57.768Z,65.19
2022-12-05T13:06:24.404Z,64.85
2022-12-05T13:08:51.036Z,64.55
2022-12-05T13:11:17.665Z,64.55
2022-12-05T13:13:44.301Z,65.47
2022-12-05T13:16:10.982Z,66.35
2022-12-05T13:18:37.650Z,66.07
2022-12-05T13:21:04.284Z,66.28
2022-12-05T13:23:30.971Z,66.32
2022-12-05T13:25:57.592Z,66.16
2022-12-05T13:28:26.217Z,65.81
2022-12-05T13:30:53.019Z,66.56
2022-12-05T13:33:19.617Z,66.62
2022-12-05T13:35:46.290Z,66.47
2022-12-05T13:38:12.987Z,66.15
2022-12-05T13:40:39.655Z,65.47
2022-12-05T13:43:06.324Z,65.54
2022-12-05T13:45:33.006Z,65.21
2022-12-05T13:47:59.686Z,65.13
2022-12-05T13:50:26.400Z,65.53
2022-12-05T13:52:53.144Z,67.12
2022-12-05T13:55:19.794Z,67.55
2022-12-05T13:57:46.446Z,69.30
2022-12-05T14:00:13.120Z,69.90
2022-12-05T14:02:39.787Z,68.89
2022-12-05T14:05:06.495Z,67.58
2022-12-05T14:07:33.148Z,67.25
2022-12-05T14:10:00.242Z,66.78
2022-12-05T14:12:27.159Z,66.00
2022-12-05T14:14:53.800Z,66.21
2022-12-05T14:17:20.617Z,66.35
2022-12-05T14:19:47.214Z,66.10
2022-12-05T14:22:13.829Z,66.19
2022-12-05T14:24:40.445Z,66.35
2022-12-05T14:27:07.127Z,64.90
2022-12-05T14:29:33.798Z,65.15
2022-12-05T14:32:04.200Z,65.50
2022-12-05T14:34:31.394Z,65.20
2022-12-05T14:36:58.006Z,64.54
2022-12-05T14:39:24.638Z,64.43
2022-12-05T14:41:51.287Z,64.20
2022-12-05T14:44:17.935Z,63.91
2022-12-05T14:46:44.539Z,63.85
2022-12-05T14:49:11.198Z,64.08
2022-12-05T14:51:37.879Z,63.74
2022-12-05T14:54:04.531Z,64.80
2022-12-05T14:56:31.174Z,65.72
2022-12-05T14:58:57.796Z,65.91
2022-12-05T15:01:24.527Z,65.65
2022-12-05T15:03:51.228Z,66.19
2022-12-05T15:06:17.855Z,65.19
2022-12-05T15:08:44.495Z,64.70
2022-12-05T15:11:11.142Z,65.67
2022-12-05T15:13:37.824Z,65.15
2022-12-05T15:16:05.026Z,65.48
2022-12-05T15:18:31.677Z,65.04
2022-12-05T15:20:58.324Z,65.06
2022-12-05T15:23:25.009Z,65.77
2022-12-05T15:25:56.955Z,66.87
2022-12-05T15:28:23.971Z,67.99
2022-12-05T15:30:50.637Z,67.28
2022-12-05T15:33:17.314Z,66.87
2022-12-05T15:35:43.976Z,66.81
2022-12-05T15:38:10.663Z,65.90
2022-12-05T15:40:37.394Z,65.74
2022-12-05T15:43:04.097Z,67.42
2022-12-05T15:45:30.758Z,66.80
2022-12-05T15:47:57.430Z,67.67
2022-12-05T15:50:24.090Z,67.96
2022-12-05T15:52:50.725Z,68.10
2022-12-05T15:55:17.438Z,67.46
2022-12-05T15:57:44.063Z,68.16
2022-12-05T16:00:10.691Z,68.84
2022-12-05T16:02:37.332Z,67.76
2022-12-05T16:05:04.009Z,67.38
2022-12-05T16:07:30.677Z,67.58
2022-12-05T16:09:57.678Z,67.36
2022-12-05T16:12:24.478Z,67.06
2022-12-05T16:14:59.452Z,66.81
2022-12-05T16:17:27.160Z,66.37
2022-12-05T16:19:53.836Z,65.95
2022-12-05T16:22:20.484Z,65.82
2022-12-05T16:24:47.116Z,65.27
2022-12-05T16:27:13.754Z,65.56
2022-12-05T16:29:40.359Z,65.46
2022-12-05T16:32:06.954Z,64.51
2022-12-05T16:34:33.584Z,65.87
2022-12-05T16:37:00.197Z,66.27
2022-12-05T16:39:26.813Z,65.84
2022-12-05T16:41:53.493Z,65.60
2022-12-05T16:44:23.302Z,65.15
2022-12-05T16:46:50.346Z,66.15
2022-12-05T16:49:16.982Z,66.73
2022-12-05T16:51:43.649Z,66.29
2022-12-05T16:54:10.322Z,66.32
2022-12-05T16:56:36.983Z,66.03
2022-12-05T16:59:03.658Z,66.41
2022-12-05T17:01:34.290Z,67.56
2022-12-05T17:04:04.038Z,67.28
2022-12-05T17:06:30.690Z,66.06
2022-12-05T17:08:57.347Z,65.91
2022-12-05T17:11:23.956Z,66.03
2022-12-05T17:13:50.589Z,65.57
2022-12-05T17:16:17.320Z,65.91
2022-12-05T17:18:44.060Z,65.96
2022-12-05T17:21:10.783Z,65.90
2022-12-05T17:23:37.427Z,65.54
2022-12-05T17:26:04.097Z,65.22
2022-12-05T17:28:30.738Z,65.48
2022-12-05T17:30:57.761Z,66.27
2022-12-05T17:33:24.436Z,67.22
2022-12-05T17:35:51.085Z,66.79
2022-12-05T17:38:17.761Z,67.03
2022-12-05T17:40:44.902Z,67.93
2022-12-05T17:43:11.596Z,67.95
2022-12-05T17:45:38.270Z,68.09
2022-12-05T17:48:04.937Z,66.76
2022-12-05T17:50:31.552Z,67.11
2022-12-05T17:52:59.671Z,66.87
2022-12-05T17:55:29.512Z,67.58
2022-12-05T17:57:56.137Z,67.34
2022-12-05T18:00:22.813Z,67.83
2022-12-05T18:02:49.451Z,67.96
2022-12-05T18:05:16.150Z,67.51
2022-12-05T18:07:42.870Z,67.50
2022-12-05T18:10:12.617Z,67.02
2022-12-05T18:12:39.674Z,66.93
2022-12-05T18:15:06.296Z,66.59
2022-12-05T18:17:32.953Z,66.61
2022-12-05T18:19:59.573Z,67.74
2022-12-05T18:22:26.195Z,69.63
2022-12-05T18:24:52.900Z,70.15
2022-12-05T18:27:19.576Z,69.96
2022-12-05T18:29:46.166Z,70.36
2022-12-05T18:32:12.886Z,70.79
2022-12-05T18:34:39.506Z,70.68
2022-12-05T18:37:06.170Z,69.46
2022-12-05T18:39:32.836Z,70.09
2022-12-05T18:41:59.463Z,70.46
2022-12-05T18:44:26.142Z,72.12
2022-12-05T18:46:52.748Z,72.47
2022-12-05T18:49:19.379Z,71.49
2022-12-05T18:51:46.065Z,72.11
2022-12-05T18:54:12.734Z,72.46
2022-12-05T18:56:39.384Z,72.32
2022-12-05T18:59:05.992Z,71.79
2022-12-05T19:01:32.681Z,71.48
2022-12-05T19:04:01.192Z,70.66
2022-12-05T19:06:27.898Z,69.96
2022-12-05T19:08:54.594Z,69.25
2022-12-05T19:11:21.347Z,69.14
2022-12-05T19:13:48.033Z,68.03
2022-12-05T19:16:14.745Z,68.80
2022-12-05T19:18:41.403Z,69.01
2022-12-05T19:21:08.070Z,69.15
2022-12-05T19:23:34.717Z,68.60
2022-12-05T19:26:01.399Z,69.65
2022-12-05T19:28:28.143Z,69.42
2022-12-05T19:30:54.802Z,68.64
2022-12-05T19:33:21.475Z,68.71
2022-12-05T19:35:48.072Z,67.86
2022-12-05T19:38:14.738Z,66.95
2022-12-05T19:40:41.408Z,67.66
2022-12-05T19:43:08.081Z,68.38
2022-12-05T19:45:34.783Z,69.21
2022-12-05T19:48:01.507Z,69.99
2022-12-05T19:50:28.242Z,69.07
2022-12-05T19:52:54.914Z,68.27
2022-12-05T19:55:21.744Z,67.75
2022-12-05T19:57:48.420Z,69.61
2022-12-05T20:00:15.080Z,69.79
2022-12-05T20:02:43.791Z,70.19
2022-12-05T20:05:12.298Z,69.65
2022-12-05T20:07:38.986Z,70.85
2022-12-05T20:10:05.695Z,71.23
2022-12-05T20:12:32.344Z,71.17
2022-12-05T20:14:58.981Z,70.34
2022-12-05T20:17:25.591Z,68.73
2022-12-05T20:19:52.224Z,68.58
2022-12-05T20:22:18.819Z,68.05
2022-12-05T20:24:45.454Z,67.60
2022-12-05T20:27:12.115Z,67.27
2022-12-05T20:29:38.751Z,66.91
2022-12-05T20:32:05.424Z,66.74
2022-12-05T20:34:32.100Z,66.31
2022-12-05T20:36:58.760Z,67.09
2022-12-05T20:39:25.415Z,66.82
2022-12-05T20:41:54.883Z,66.76
2022-12-05T20:44:21.590Z,66.98
2022-12-05T20:46:48.305Z,66.59
2022-12-05T20:49:14.964Z,66.49
2022-12-05T20:51:41.612Z,66.05
2022-12-05T20:54:08.248Z,66.04
2022-12-05T20:56:34.944Z,65.83
2022-12-05T20:59:01.592Z,66.07
2022-12-05T21:01:28.267Z,66.22
2022-12-05T21:03:54.974Z,66.60
2022-12-05T21:06:21.601Z,66.89
2022-12-05T21:08:48.233Z,66.57
2022-12-05T21:11:14.894Z,67.40
2022-12-05T21:13:41.540Z,67.28
2022-12-05T21:16:08.267Z,67.72
2022-12-05T21:18:34.965Z,67.32
2022-12-05T21:21:01.640Z,66.69
2022-12-05T21:23:28.322Z,65.84
2022-12-05T21:25:54.994Z,65.89
2022-12-05T21:28:21.670Z,66.78
2022-12-05T21:30:48.381Z,67.20
2022-12-05T21:33:15.090Z,66.62
2022-12-05T21:35:41.722Z,66.91
2022-12-05T21:38:08.357Z,66.74
2022-12-05T21:40:35.066Z,66.61
2022-12-05T21:43:01.731Z,67.21
2022-12-05T21:45:28.341Z,67.49
2022-12-05T21:47:55.021Z,67.52
2022-12-05T21:50:21.667Z,67.04
2022-12-05T21:52:48.306Z,66.68
2022-12-05T21:55:14.968Z,67.24
2022-12-05T21:57:41.560Z,67.35
2022-12-05T22:00:08.241Z,67.60
2022-12-05T22:02:34.871Z,67.67
2022-12-05T22:05:01.577Z,67.44
2022-12-05T22:07:28.272Z,67.82
2022-12-05T22:09:54.852Z,67.12
2022-12-05T22:12:21.533Z,67.21
2022-12-05T22:14:48.204Z,66.61
2022-12-05T22:17:14.841Z,66.29
2022-12-05T22:19:41.492Z,66.76
2022-12-05T22:22:08.132Z,66.66
2022-12-05T22:24:35.320Z,66.35
2022-12-05T22:27:02.003Z,66.23
2022-12-05T22:29:28.662Z,65.98
2022-12-05T22:31:55.339Z,65.80
2022-12-05T22:34:21.970Z,66.07
2022-12-05T22:36:48.568Z,65.13
2022-12-05T22:39:15.235Z,65.63
2022-12-05T22:41:41.917Z,66.47
2022-12-05T22:44:08.518Z,66.58
2022-12-05T22:46:35.260Z,66.15
2022-12-05T22:49:01.962Z,66.46
2022-12-05T22:51:28.633Z,66.14
2022-12-05T22:53:55.236Z,66.27
2022-12-05T22:56:21.891Z,65.79
2022-12-05T22:58:48.570Z,65.88
2022-12-05T23:01:15.182Z,66.03
2022-12-05T23:03:41.896Z,65.68
2022-12-05T23:06:11.766Z,65.88
2022-12-05T23:08:38.811Z,65.48
2022-12-05T23:11:05.437Z,65.66
2022-12-05T23:13:32.062Z,65.44
2022-12-05T23:15:58.754Z,65.84
2022-12-05T23:18:25.427Z,66.54
2022-12-05T23:20:52.042Z,66.31
2022-12-05T23:23:18.704Z,66.12
2022-12-05T23:25:45.362Z,66.16
2022-12-05T23:28:12.006Z,66.33
2022-12-05T23:30:38.614Z,65.84
2022-12-05T23:33:05.241Z,65.21
2022-12-05T23:35:31.898Z,65.41
2022-12-05T23:37:58.533Z,65.45
2022-12-05T23:40:25.185Z,65.35
2022-12-05T23:42:51.819Z,65.48
2022-12-05T23:45:18.496Z,65.43
2022-12-05T23:47:45.163Z,65.37
2022-12-05T23:50:11.820Z,65.45
2022-12-05T23:52:38.459Z,65.28
2022-12-05T23:55:05.054Z,65.57
2022-12-05T23:57:31.652Z,65.36
2022-12-05T23:59:58.555Z,65.71
